North Platte, NE

5:29 AM CDT on August 21, 2017 (GMT -0500)
North Platte Regional-Bird | | Change Station
Active Advisory: Dense Fog Advisory

Elev 2779 ft 41.13 °N, 100.68 °W | Updated 36 minutes ago

Fog
Fog
72 °F
Feels Like 72 °F
N
5
Wind Variable Wind from ESE

Today
High -- | Low -- °F
--% Chance of Precip.
Yesterday
High -- | Low -- °F
Precip. -- in
Pressure 29.85 in
Visibility 0.2 miles
Clouds
Dew Point 71 °F
Humidity 97%
Rainfall 0.00 in
Snow Depth Not available.
6:58 AM 8:32 PM
Waning Crescent, 0% visible
METAR KLBF 210953Z AUTO 11004KT 1/4SM FG VV002 22/22 A2994 RMK AO2 SLP106 T02220217
Pressure 29.85 in
Visibility 0.2 miles
Clouds
Dew Point 71 °F
Humidity 97%
Rainfall 0.00 in
Snow Depth Not available.
6:58 AM 8:32 PM
Waning Crescent, 0% visible
METAR KLBF 210953Z AUTO 11004KT 1/4SM FG VV002 22/22 A2994 RMK AO2 SLP106 T02220217

Get Your Daily Forecast Email!

Thanks for signing up!

Be on the lookout for a verification email in your inbox.

You'll start receiving severe weather alerts in your inbox..

×

10-Day Weather Forecast

Almanac

Astronomy

Aug. 21, 2017 Rise Set
Actual Time
Civil Twilight
Nautical Twilight
Astronomical Twilight
Moon
Length of Visible Light
Length of Day
Tomorrow will be .
, % of the Moon is Illuminated

Today's Extremes

State Highs State Lows

Community

WunderPhotos

Category 6

Welcome to Category 6. This is the collective home for Weather Underground's featured writeups by Dr. Jeff Masters (right), Bob Henson (left), Chris Burt, and other regular contributors.

Nearby

Air Quality

  Air Quality AQ Index Pollutant
Not available.

Snow Depth

Station Depth Elevation

Earthquake Activity

City Distance Mag. Time & Date
Minimum magnitude displayed is 2.5.

Coastal Water Temperatures

Place Temperature

Stations

Nearby Weather Stations

Station Location Temp. Windchill Dew Point Humidity Wind Precip. Elev Updated Type
                   

Watches & Warnings

Dense Fog Advisory
Issued: 3:50 AM MDT Aug. 21, 2017 – National Weather Service

... Dense fog advisory in effect until 10 am CDT /9 am MDT/ this
morning...

The National Weather Service in North Platte has issued a dense
fog advisory, which is in effect until 10 am CDT /9 am MDT/ this
morning.

* Visibility... visibilities will be reduced to a quarter of a mile
at times.

* Impacts... visibilities will vary greatly over short distances
making driving hazardous.

Precautionary/preparedness actions...

A dense fog advisory means visibilities will frequently be
reduced to less than one quarter mile. If driving, slow down, use
your headlights, and leave plenty of distance ahead of you.


Power